createdAt,value
2022-12-06T00:00:14.598Z,82.95
2022-12-06T00:03:02.972Z,76.07
2022-12-06T00:05:46.954Z,74.75
2022-12-06T00:11:20.768Z,65.88
2022-12-06T00:14:12.046Z,66.30
2022-12-06T00:16:50.319Z,75.35
2022-12-06T00:19:38.031Z,67.82
2022-12-06T00:22:18.992Z,76.38
2022-12-06T00:25:07.914Z,75.13
2022-12-06T00:27:53.827Z,71.38
2022-12-06T00:30:42.190Z,73.40
2022-12-06T00:33:28.325Z,72.85
2022-12-06T00:36:24.441Z,71.43
2022-12-06T00:39:08.463Z,69.55
2022-12-06T00:41:58.280Z,72.43
2022-12-06T00:44:33.698Z,71.55
2022-12-06T00:47:23.253Z,75.47
2022-12-06T00:50:09.524Z,72.75
2022-12-06T00:52:55.846Z,76.53
2022-12-06T00:55:34.362Z,75.00
2022-12-06T00:58:21.180Z,71.20
2022-12-06T01:01:21.972Z,69.75
2022-12-06T01:04:09.489Z,72.47
2022-12-06T01:06:55.967Z,69.75
2022-12-06T01:09:37.262Z,71.50
2022-12-06T01:12:29.012Z,71.30
2022-12-06T01:15:12.177Z,67.32
2022-12-06T01:17:53.886Z,80.75
2022-12-06T01:20:35.794Z,76.88
2022-12-06T01:23:22.873Z,63.72
2022-12-06T01:26:10.558Z,55.38
2022-12-06T01:28:51.399Z,56.05
2022-12-06T01:31:39.683Z,50.60
2022-12-06T01:34:25.277Z,51.35
2022-12-06T01:37:11.100Z,47.15
2022-12-06T01:39:50.768Z,46.38
2022-12-06T01:42:38.939Z,44.63
2022-12-06T01:45:20.292Z,36.90
2022-12-06T01:48:08.791Z,41.92
2022-12-06T01:50:49.704Z,42.30
2022-12-06T01:53:32.572Z,35.90
2022-12-06T01:56:11.855Z,44.30
2022-12-06T01:58:59.080Z,42.70
2022-12-06T02:01:38.026Z,46.53
2022-12-06T02:04:28.802Z,46.70
2022-12-06T02:07:22.371Z,49.78
2022-12-06T02:10:20.598Z,54.90
2022-12-06T02:13:01.094Z,51.58
2022-12-06T02:15:50.518Z,51.88
2022-12-06T02:18:47.297Z,60.53
2022-12-06T02:22:18.137Z,53.55
2022-12-06T02:25:13.654Z,52.40
2022-12-06T02:28:25.188Z,58.63
2022-12-06T02:31:31.771Z,47.65
2022-12-06T02:34:21.679Z,43.03
2022-12-06T02:37:13.462Z,44.85
2022-12-06T02:40:19.189Z,42.95
2022-12-06T02:43:24.480Z,43.38
2022-12-06T02:46:15.652Z,38.05
2022-12-06T02:49:02.725Z,39.33
2022-12-06T02:51:50.535Z,35.50
2022-12-06T02:54:34.943Z,35.10
2022-12-06T02:57:40.046Z,35.40
2022-12-06T03:00:34.710Z,34.65
2022-12-06T03:03:30.876Z,29.88
2022-12-06T03:06:19.814Z,31.10
2022-12-06T03:09:58.284Z,31.33
2022-12-06T03:12:57.065Z,32.33
2022-12-06T03:16:30.954Z,36.35
2022-12-06T03:19:29.074Z,33.80
2022-12-06T03:22:10.022Z,32.58
2022-12-06T03:24:44.127Z,36.08
2022-12-06T03:27:36.407Z,35.55
2022-12-06T03:30:16.564Z,28.25
2022-12-06T03:33:01.953Z,36.95
2022-12-06T03:35:41.410Z,36.65
2022-12-06T03:38:30.699Z,30.67
2022-12-06T03:41:27.072Z,36.25
2022-12-06T03:44:16.259Z,39.63
2022-12-06T03:47:34.526Z,42.80
2022-12-06T03:50:31.342Z,42.75
2022-12-06T03:55:51.102Z,51.90
2022-12-06T03:58:43.176Z,52.92
2022-12-06T04:01:28.009Z,53.90
2022-12-06T04:04:13.243Z,53.72
2022-12-06T04:06:59.304Z,56.92
2022-12-06T04:09:55.532Z,54.15
2022-12-06T04:12:56.229Z,51.58
2022-12-06T04:15:40.159Z,43.70
2022-12-06T04:18:34.543Z,41.72
2022-12-06T04:21:36.912Z,35.17
2022-12-06T04:24:27.453Z,37.55
2022-12-06T04:27:26.571Z,39.08
2022-12-06T04:30:24.147Z,36.05
2022-12-06T04:33:24.541Z,37.83
2022-12-06T04:36:29.079Z,32.33
2022-12-06T04:39:20.663Z,34.47
2022-12-06T04:42:22.904Z,38.83
2022-12-06T04:45:07.819Z,33.85
2022-12-06T04:47:43.381Z,34.63
2022-12-06T04:50:35.173Z,40.95
2022-12-06T04:53:34.688Z,32.40
2022-12-06T04:56:18.748Z,40.63
2022-12-06T04:59:08.005Z,36.15
2022-12-06T05:01:52.886Z,35.75
2022-12-06T05:04:37.346Z,39.08
2022-12-06T05:07:16.167Z,40.25
2022-12-06T05:10:06.170Z,34.20
2022-12-06T05:12:46.821Z,37.00
2022-12-06T05:15:33.679Z,31.67
2022-12-06T05:18:20.937Z,32.17
2022-12-06T05:21:23.009Z,32.47
2022-12-06T05:24:03.695Z,33.45
2022-12-06T05:26:56.097Z,31.83
2022-12-06T05:29:39.576Z,31.90
2022-12-06T05:32:32.637Z,31.13
2022-12-06T05:35:16.624Z,34.20
2022-12-06T05:37:58.758Z,31.80
2022-12-06T05:40:35.015Z,33.77
2022-12-06T05:43:28.262Z,34.33
2022-12-06T05:46:19.910Z,37.03
2022-12-06T05:49:04.379Z,33.88
2022-12-06T05:51:56.921Z,29.13
2022-12-06T05:54:40.912Z,31.70
2022-12-06T05:57:19.039Z,29.42
2022-12-06T05:59:56.989Z,35.65
2022-12-06T06:02:51.580Z,38.10
2022-12-06T06:05:32.631Z,37.40
2022-12-06T06:08:18.593Z,33.50
2022-12-06T06:10:57.903Z,33.17
2022-12-06T06:13:53.247Z,36.30
2022-12-06T06:16:40.209Z,36.97
2022-12-06T06:19:30.063Z,42.03
2022-12-06T06:22:22.756Z,32.88
2022-12-06T06:25:05.931Z,39.15
2022-12-06T06:27:38.171Z,35.83
2022-12-06T06:30:27.902Z,35.90
2022-12-06T06:33:09.883Z,35.75
2022-12-06T06:36:03.213Z,33.42
2022-12-06T06:38:41.645Z,30.03
2022-12-06T06:41:19.117Z,32.28
2022-12-06T06:43:54.811Z,37.95
2022-12-06T06:46:52.716Z,38.15
2022-12-06T06:49:34.789Z,38.83
2022-12-06T06:52:24.717Z,41.33
2022-12-06T06:55:05.714Z,43.53
2022-12-06T06:57:55.589Z,44.63
2022-12-06T07:00:42.355Z,38.67
2022-12-06T07:03:27.756Z,39.35
2022-12-06T07:06:26.119Z,40.28
2022-12-06T07:09:19.892Z,40.17
2022-12-06T07:12:02.644Z,37.03
2022-12-06T07:14:46.876Z,38.55
2022-12-06T07:17:36.005Z,37.67
2022-12-06T07:20:37.591Z,33.90
2022-12-06T07:23:18.190Z,42.60
2022-12-06T07:26:12.784Z,37.50
2022-12-06T07:28:54.624Z,38.75
2022-12-06T07:31:42.862Z,39.45
2022-12-06T07:34:20.911Z,40.42
2022-12-06T07:37:04.740Z,59.30
2022-12-06T07:39:44.861Z,59.13
2022-12-06T07:42:54.141Z,58.60
2022-12-06T07:45:39.480Z,49.75
2022-12-06T07:48:29.573Z,39.25
2022-12-06T07:51:15.073Z,34.15
2022-12-06T07:54:01.007Z,39.42
2022-12-06T07:56:49.861Z,37.67
2022-12-06T07:59:37.211Z,38.45
2022-12-06T08:02:21.730Z,42.10
2022-12-06T08:05:06.222Z,41.20
2022-12-06T08:07:54.294Z,40.22
2022-12-06T08:10:38.932Z,53.22
2022-12-06T08:13:29.261Z,49.53
2022-12-06T08:16:23.579Z,41.35
2022-12-06T08:19:05.049Z,42.60
2022-12-06T08:21:51.881Z,47.72
2022-12-06T08:24:56.174Z,37.75
2022-12-06T08:27:39.094Z,36.72
2022-12-06T08:30:20.703Z,39.63
2022-12-06T08:33:16.957Z,35.88
2022-12-06T08:36:06.300Z,37.55
2022-12-06T08:39:00.931Z,41.50
2022-12-06T08:42:03.705Z,45.47
2022-12-06T08:44:38.341Z,42.17
2022-12-06T08:47:21.615Z,42.42
2022-12-06T08:50:02.746Z,39.42
2022-12-06T08:52:46.225Z,45.75
2022-12-06T08:55:42.205Z,36.80
2022-12-06T08:58:32.918Z,28.90
2022-12-06T09:01:34.149Z,34.15
2022-12-06T09:04:23.033Z,31.20
2022-12-06T09:07:11.859Z,36.53
2022-12-06T09:10:09.566Z,31.60
2022-12-06T09:13:15.182Z,36.00
2022-12-06T09:16:01.941Z,33.25
2022-12-06T09:18:43.076Z,32.42
2022-12-06T09:21:33.273Z,31.48
2022-12-06T09:24:14.164Z,112.22
2022-12-06T09:27:01.339Z,40.63
2022-12-06T09:29:50.978Z,46.85
2022-12-06T09:32:31.810Z,49.83
2022-12-06T09:35:25.055Z,45.25
2022-12-06T09:38:10.720Z,51.42
2022-12-06T09:41:14.249Z,66.25
2022-12-06T09:44:24.738Z,59.80
2022-12-06T09:48:08.516Z,30.00
2022-12-06T09:51:45.435Z,33.90
2022-12-06T09:54:53.503Z,27.20
2022-12-06T09:58:08.858Z,19.58
2022-12-06T10:01:16.679Z,11.60
2022-12-06T10:04:14.957Z,12.68
2022-12-06T10:07:13.909Z,16.63
2022-12-06T10:10:11.013Z,17.40
2022-12-06T10:13:24.303Z,8.18
2022-12-06T10:16:32.433Z,58.33
2022-12-06T10:19:31.387Z,38.75
2022-12-06T10:22:39.535Z,11.60
2022-12-06T10:25:23.402Z,53.50
2022-12-06T10:28:16.566Z,22.85
2022-12-06T10:31:14.672Z,36.00
2022-12-06T10:34:07.538Z,28.17
2022-12-06T10:37:28.896Z,8.00
2022-12-06T10:40:30.991Z,10.25
2022-12-06T10:43:53.828Z,19.70
2022-12-06T10:47:18.176Z,7.10
2022-12-06T10:50:21.033Z,7.68
2022-12-06T10:53:19.132Z,6.43
2022-12-06T10:56:17.666Z,7.45
2022-12-06T10:59:28.484Z,12.15
2022-12-06T11:02:42.978Z,8.73
2022-12-06T11:06:18.837Z,7.18
2022-12-06T11:09:14.116Z,8.30
2022-12-06T11:11:54.910Z,8.45
2022-12-06T11:14:52.567Z,6.57
2022-12-06T11:17:43.460Z,6.72
2022-12-06T11:20:34.800Z,6.45
2022-12-06T11:23:29.268Z,8.50
2022-12-06T11:26:39.491Z,9.43
2022-12-06T11:29:23.442Z,7.65
2022-12-06T11:35:07.319Z,4.95
2022-12-06T11:38:08.683Z,12.57
2022-12-06T11:40:57.054Z,13.02
2022-12-06T11:43:50.302Z,5.53
2022-12-06T11:46:36.710Z,14.75
2022-12-06T11:49:42.755Z,5.28
2022-12-06T11:52:51.894Z,6.72
2022-12-06T11:55:44.557Z,7.40
2022-12-06T11:58:59.069Z,7.00
2022-12-06T12:01:58.301Z,5.93
2022-12-06T12:04:58.946Z,4.32
2022-12-06T12:07:49.671Z,7.72
2022-12-06T12:10:43.805Z,7.78
2022-12-06T12:13:42.287Z,37.10
2022-12-06T12:16:36.479Z,32.03
2022-12-06T12:19:33.419Z,20.63
2022-12-06T12:22:52.612Z,6.57
2022-12-06T12:25:42.554Z,14.65
2022-12-06T12:28:41.581Z,9.13
2022-12-06T12:31:32.977Z,10.52
2022-12-06T12:34:52.687Z,3.80
2022-12-06T12:37:41.806Z,4.03
2022-12-06T12:40:42.825Z,5.68
2022-12-06T12:43:30.842Z,6.38
2022-12-06T12:46:29.167Z,6.53
2022-12-06T12:49:39.257Z,8.68
2022-12-06T12:52:50.303Z,14.20
2022-12-06T12:55:39.503Z,13.05
2022-12-06T12:58:24.099Z,21.40
2022-12-06T13:01:15.576Z,19.08
2022-12-06T13:04:03.869Z,11.60
2022-12-06T13:07:27.012Z,28.90
2022-12-06T13:10:33.263Z,20.60
2022-12-06T13:13:42.389Z,20.25
2022-12-06T13:16:39.322Z,8.98
2022-12-06T13:19:23.862Z,5.72
2022-12-06T13:22:20.888Z,4.45
2022-12-06T13:25:12.715Z,56.28
2022-12-06T13:27:59.680Z,20.60
2022-12-06T13:30:47.220Z,9.63
2022-12-06T13:33:28.437Z,12.93
2022-12-06T13:36:15.572Z,9.07
2022-12-06T13:38:59.112Z,6.40
2022-12-06T13:42:27.714Z,10.25
2022-12-06T13:45:34.843Z,7.40
2022-12-06T13:48:30.172Z,12.50
2022-12-06T13:51:51.575Z,6.68
2022-12-06T13:54:43.032Z,5.80
2022-12-06T13:57:38.773Z,3.92
2022-12-06T14:00:40.670Z,3.47
2022-12-06T14:04:02.475Z,14.43
2022-12-06T14:06:51.999Z,6.47
2022-12-06T14:09:37.365Z,4.30
2022-12-06T14:12:36.709Z,4.75
2022-12-06T14:15:15.661Z,9.02
2022-12-06T14:18:05.494Z,4.25
2022-12-06T14:20:53.690Z,7.55
2022-12-06T14:23:54.576Z,4.13
2022-12-06T14:26:48.767Z,4.82
2022-12-06T14:29:34.893Z,4.07
2022-12-06T14:32:12.694Z,5.40
2022-12-06T14:34:53.735Z,7.50
2022-12-06T14:37:44.414Z,9.30
2022-12-06T14:41:02.933Z,5.88
2022-12-06T14:43:49.807Z,9.57
2022-12-06T14:49:41.443Z,14.02
2022-12-06T14:52:36.544Z,5.65
2022-12-06T14:55:32.620Z,8.48
2022-12-06T14:58:22.035Z,6.15
2022-12-06T15:01:28.798Z,7.55
2022-12-06T15:04:12.636Z,9.27
2022-12-06T15:07:15.809Z,5.40
2022-12-06T15:09:56.803Z,5.35
2022-12-06T15:13:09.852Z,7.45
2022-12-06T15:16:03.329Z,5.50
2022-12-06T15:19:01.983Z,6.72
2022-12-06T15:21:49.991Z,6.35
2022-12-06T15:24:39.978Z,7.18
2022-12-06T15:27:37.847Z,8.50
2022-12-06T15:30:25.473Z,4.03
2022-12-06T15:33:13.308Z,5.32
2022-12-06T15:36:01.365Z,4.40
2022-12-06T15:38:50.126Z,3.88
2022-12-06T15:41:38.690Z,7.78
2022-12-06T15:44:33.276Z,8.88
2022-12-06T15:47:20.871Z,9.02
2022-12-06T15:50:18.429Z,8.02
2022-12-06T15:53:00.486Z,7.20
2022-12-06T15:55:44.667Z,5.82
2022-12-06T15:58:29.961Z,7.57
2022-12-06T16:01:44.920Z,5.07
2022-12-06T16:04:33.615Z,7.43
2022-12-06T16:07:22.854Z,9.10
2022-12-06T16:10:37.335Z,5.60
2022-12-06T16:13:44.844Z,8.30
2022-12-06T16:16:32.817Z,6.18
2022-12-06T16:19:21.838Z,6.43
2022-12-06T16:22:05.078Z,4.20
2022-12-06T16:24:56.834Z,5.47
2022-12-06T16:27:48.222Z,4.25
2022-12-06T16:30:40.178Z,6.80
2022-12-06T16:33:28.934Z,11.00
2022-12-06T16:36:31.044Z,18.08
2022-12-06T16:39:13.586Z,41.20
2022-12-06T16:42:03.146Z,23.48
2022-12-06T16:44:57.113Z,9.40
2022-12-06T16:47:45.634Z,8.18
2022-12-06T16:50:37.919Z,7.50
2022-12-06T16:53:29.896Z,12.55
2022-12-06T16:56:20.531Z,18.80
2022-12-06T16:59:02.135Z,49.45
2022-12-06T17:01:57.139Z,11.57
2022-12-06T17:05:01.311Z,9.18
2022-12-06T17:07:47.492Z,6.70
2022-12-06T17:10:34.916Z,6.20
2022-12-06T17:13:22.797Z,5.82
2022-12-06T17:16:06.230Z,7.40
2022-12-06T17:19:06.848Z,10.40
2022-12-06T17:21:57.050Z,3.88
2022-12-06T17:24:43.614Z,10.27
2022-12-06T17:27:33.349Z,16.90
2022-12-06T17:30:22.614Z,12.90
2022-12-06T17:33:06.633Z,7.35
2022-12-06T17:35:52.754Z,6.97
2022-12-06T17:38:37.826Z,7.43
2022-12-06T17:41:47.097Z,10.23
2022-12-06T17:44:40.140Z,8.07
2022-12-06T17:47:26.318Z,9.77
2022-12-06T17:50:20.033Z,8.68
2022-12-06T17:53:05.484Z,8.98
2022-12-06T17:55:54.122Z,10.68
2022-12-06T17:58:47.069Z,10.25
2022-12-06T18:01:23.891Z,15.25
2022-12-06T18:04:10.886Z,17.83
2022-12-06T18:07:00.509Z,28.75
2022-12-06T18:09:51.129Z,18.65
2022-12-06T18:12:37.805Z,24.10
2022-12-06T18:15:42.842Z,22.88
2022-12-06T18:18:27.378Z,11.75
2022-12-06T18:21:15.618Z,17.50
2022-12-06T18:24:20.922Z,11.68
2022-12-06T18:27:21.647Z,10.07
2022-12-06T18:30:08.467Z,15.50
2022-12-06T18:32:54.896Z,9.32
2022-12-06T18:35:40.288Z,11.20
2022-12-06T18:38:23.813Z,9.98
2022-12-06T18:41:23.618Z,12.07
2022-12-06T18:44:10.651Z,7.38
2022-12-06T18:46:56.143Z,8.15
2022-12-06T18:49:50.795Z,7.43
2022-12-06T18:52:28.596Z,10.25
2022-12-06T18:55:17.936Z,8.77
2022-12-06T18:58:05.871Z,9.43
2022-12-06T19:00:50.717Z,27.10
2022-12-06T19:03:43.342Z,26.45
2022-12-06T19:06:28.242Z,9.73
2022-12-06T19:09:25.930Z,49.10
2022-12-06T19:12:12.907Z,32.95
2022-12-06T19:15:04.597Z,21.77
2022-12-06T19:20:54.855Z,6.25
2022-12-06T19:23:34.287Z,5.60
2022-12-06T19:26:29.487Z,4.90
2022-12-06T19:29:29.938Z,5.30
2022-12-06T19:32:13.629Z,6.25
2022-12-06T19:35:08.205Z,6.65
2022-12-06T19:38:10.415Z,6.40
2022-12-06T19:40:53.611Z,6.72
2022-12-06T19:43:54.141Z,9.65
2022-12-06T19:46:41.575Z,6.03
2022-12-06T19:49:41.636Z,7.28
2022-12-06T19:52:30.691Z,7.00
2022-12-06T19:55:22.699Z,7.85
2022-12-06T19:58:12.168Z,6.90
2022-12-06T20:00:51.875Z,18.80
2022-12-06T20:03:41.834Z,13.10
2022-12-06T20:06:32.860Z,9.05
2022-12-06T20:09:17.522Z,6.63
2022-12-06T20:12:06.240Z,6.97
2022-12-06T20:14:55.251Z,11.68
2022-12-06T20:17:43.447Z,8.73
2022-12-06T20:20:31.701Z,9.10
2022-12-06T20:23:26.501Z,18.85
2022-12-06T20:26:15.485Z,18.70
2022-12-06T20:29:03.924Z,22.60
2022-12-06T20:31:47.336Z,21.60
2022-12-06T20:34:36.358Z,21.70
2022-12-06T20:37:26.607Z,20.58
2022-12-06T20:40:16.899Z,25.50
2022-12-06T20:42:57.078Z,22.85
2022-12-06T20:45:37.748Z,24.80
2022-12-06T20:48:24.147Z,19.85
2022-12-06T20:51:21.443Z,20.10
2022-12-06T20:54:03.485Z,18.73
2022-12-06T20:57:12.025Z,26.85
2022-12-06T21:00:08.790Z,24.20
2022-12-06T21:03:11.483Z,20.67
2022-12-06T21:05:57.498Z,21.20
2022-12-06T21:09:01.146Z,21.48
2022-12-06T21:11:44.881Z,18.90
2022-12-06T21:14:28.033Z,18.35
2022-12-06T21:17:08.639Z,20.13
2022-12-06T21:19:52.063Z,19.73
2022-12-06T21:22:43.962Z,19.65
2022-12-06T21:25:26.766Z,20.80
2022-12-06T21:28:15.258Z,17.65
2022-12-06T21:31:02.860Z,20.58
2022-12-06T21:33:45.539Z,19.55
2022-12-06T21:36:26.969Z,27.65
2022-12-06T21:39:07.786Z,23.00
2022-12-06T21:41:54.165Z,30.67
2022-12-06T21:44:43.266Z,29.77
2022-12-06T21:47:24.142Z,25.17
2022-12-06T21:50:06.455Z,27.45
2022-12-06T21:52:55.978Z,27.50
2022-12-06T21:55:30.040Z,25.95
2022-12-06T21:58:03.275Z,28.42
2022-12-06T22:00:51.618Z,28.77
2022-12-06T22:03:33.891Z,26.42
2022-12-06T22:06:20.416Z,27.02
2022-12-06T22:09:05.347Z,28.38
2022-12-06T22:12:01.144Z,27.83
2022-12-06T22:14:53.787Z,25.48
2022-12-06T22:17:37.544Z,25.17
2022-12-06T22:20:29.489Z,27.77
2022-12-06T22:23:07.634Z,24.95
2022-12-06T22:25:49.989Z,27.10
2022-12-06T22:28:45.351Z,26.73
2022-12-06T22:31:42.181Z,28.63
2022-12-06T22:34:26.929Z,24.17
2022-12-06T22:37:17.755Z,29.20
2022-12-06T22:40:04.305Z,29.55
2022-12-06T22:42:53.275Z,25.60
2022-12-06T22:45:47.015Z,24.50
2022-12-06T22:48:34.611Z,32.90
2022-12-06T22:51:30.643Z,26.23
2022-12-06T22:54:14.887Z,28.83
2022-12-06T22:57:22.135Z,29.20
2022-12-06T22:59:57.533Z,31.92
2022-12-06T23:03:05.608Z,27.65
2022-12-06T23:06:02.765Z,28.52
2022-12-06T23:08:41.773Z,29.33
2022-12-06T23:11:27.633Z,27.95
2022-12-06T23:14:20.726Z,28.55
2022-12-06T23:17:01.315Z,26.55
2022-12-06T23:19:56.642Z,28.30
2022-12-06T23:22:47.638Z,28.05
2022-12-06T23:25:33.776Z,30.87
2022-12-06T23:28:18.614Z,28.48
2022-12-06T23:31:02.413Z,28.27
2022-12-06T23:33:43.706Z,22.70
2022-12-06T23:36:41.411Z,29.77
2022-12-06T23:39:28.137Z,31.23
2022-12-06T23:42:11.681Z,27.88
2022-12-06T23:44:54.737Z,24.17
2022-12-06T23:47:41.817Z,29.17
2022-12-06T23:50:22.310Z,28.25
2022-12-06T23:53:06.085Z,26.00
2022-12-06T23:55:46.488Z,23.73
2022-12-06T23:58:23.989Z,27.35
